sensor_id;sensor_type;location;lat;lon;timestamp;pressure;altitude;pressure_sealevel;temperature;humidity
85918;BME280;76456;49.310;8.632;2024-02-23T00:02:08;98457.38;;;8.15;64.19
85918;BME280;76456;49.310;8.632;2024-02-23T00:04:33;98419.81;;;7.95;64.45
85918;BME280;76456;49.310;8.632;2024-02-23T00:06:58;98449.44;;;7.99;64.29
85918;BME280;76456;49.310;8.632;2024-02-23T00:09:24;98436.59;;;7.90;64.66
85918;BME280;76456;49.310;8.632;2024-02-23T00:11:49;98453.41;;;7.84;65.20
85918;BME280;76456;49.310;8.632;2024-02-23T00:14:15;98460.72;;;7.79;65.67
85918;BME280;76456;49.310;8.632;2024-02-23T00:16:43;98446.56;;;7.56;66.88
85918;BME280;76456;49.310;8.632;2024-02-23T00:19:09;98473.19;;;7.64;66.83
85918;BME280;76456;49.310;8.632;2024-02-23T00:21:38;98492.00;;;7.65;67.72
85918;BME280;76456;49.310;8.632;2024-02-23T00:24:04;98464.00;;;7.52;67.62
85918;BME280;76456;49.310;8.632;2024-02-23T00:26:30;98472.25;;;7.56;67.64
85918;BME280;76456;49.310;8.632;2024-02-23T00:28:56;98492.50;;;7.68;67.64
85918;BME280;76456;49.310;8.632;2024-02-23T00:31:21;98474.00;;;7.55;67.30
85918;BME280;76456;49.310;8.632;2024-02-23T00:33:46;98512.00;;;7.71;66.75
85918;BME280;76456;49.310;8.632;2024-02-23T00:36:12;98521.03;;;7.56;67.75
85918;BME280;76456;49.310;8.632;2024-02-23T00:38:38;98516.19;;;7.53;66.03
85918;BME280;76456;49.310;8.632;2024-02-23T00:41:03;98506.88;;;7.42;64.94
85918;BME280;76456;49.310;8.632;2024-02-23T00:43:28;98530.09;;;7.40;66.80
85918;BME280;76456;49.310;8.632;2024-02-23T00:45:56;98536.31;;;7.38;66.33
85918;BME280;76456;49.310;8.632;2024-02-23T00:48:22;98526.44;;;7.33;65.14
85918;BME280;76456;49.310;8.632;2024-02-23T00:50:47;98518.88;;;7.32;64.92
85918;BME280;76456;49.310;8.632;2024-02-23T00:53:12;98503.59;;;7.30;64.74
85918;BME280;76456;49.310;8.632;2024-02-23T00:55:38;98510.34;;;7.31;64.47
85918;BME280;76456;49.310;8.632;2024-02-23T00:58:03;98498.47;;;7.21;64.68
85918;BME280;76456;49.310;8.632;2024-02-23T01:00:29;98494.97;;;7.12;64.66
85918;BME280;76456;49.310;8.632;2024-02-23T01:02:54;98504.94;;;7.06;65.93
85918;BME280;76456;49.310;8.632;2024-02-23T01:05:19;98530.91;;;7.12;64.05
85918;BME280;76456;49.310;8.632;2024-02-23T01:07:45;98547.88;;;7.04;65.62
85918;BME280;76456;49.310;8.632;2024-02-23T01:10:10;98534.25;;;7.03;64.96
85918;BME280;76456;49.310;8.632;2024-02-23T01:12:36;98547.34;;;7.00;65.96
85918;BME280;76456;49.310;8.632;2024-02-23T01:15:02;98548.53;;;6.86;66.26
85918;BME280;76456;49.310;8.632;2024-02-23T01:17:28;98532.53;;;6.73;67.14
85918;BME280;76456;49.310;8.632;2024-02-23T01:19:53;98558.28;;;6.62;67.05
85918;BME280;76456;49.310;8.632;2024-02-23T01:22:19;98559.28;;;6.40;69.53
85918;BME280;76456;49.310;8.632;2024-02-23T01:24:44;98551.09;;;6.26;70.44
85918;BME280;76456;49.310;8.632;2024-02-23T01:27:09;98546.53;;;6.29;70.68
85918;BME280;76456;49.310;8.632;2024-02-23T01:29:35;98545.50;;;6.11;71.57
85918;BME280;76456;49.310;8.632;2024-02-23T01:32:00;98565.59;;;6.15;71.80
85918;BME280;76456;49.310;8.632;2024-02-23T01:34:26;98566.94;;;6.10;71.98
85918;BME280;76456;49.310;8.632;2024-02-23T01:36:51;98573.53;;;6.33;71.23
85918;BME280;76456;49.310;8.632;2024-02-23T01:39:17;98573.16;;;6.38;70.72
85918;BME280;76456;49.310;8.632;2024-02-23T01:41:42;98555.78;;;6.21;71.68
85918;BME280;76456;49.310;8.632;2024-02-23T01:44:09;98559.16;;;6.21;71.42
85918;BME280;76456;49.310;8.632;2024-02-23T01:46:35;98577.59;;;6.15;71.83
85918;BME280;76456;49.310;8.632;2024-02-23T01:49:01;98574.22;;;6.14;71.69
85918;BME280;76456;49.310;8.632;2024-02-23T01:51:26;98579.44;;;6.24;71.17
85918;BME280;76456;49.310;8.632;2024-02-23T01:53:51;98575.16;;;6.13;71.34
85918;BME280;76456;49.310;8.632;2024-02-23T01:56:17;98582.94;;;6.23;70.36
85918;BME280;76456;49.310;8.632;2024-02-23T01:58:43;98597.16;;;6.57;68.31
85918;BME280;76456;49.310;8.632;2024-02-23T02:01:10;98592.91;;;6.47;69.00
85918;BME280;76456;49.310;8.632;2024-02-23T02:03:37;98616.44;;;6.62;68.41
85918;BME280;76456;49.310;8.632;2024-02-23T02:06:04;98609.09;;;6.47;68.76
85918;BME280;76456;49.310;8.632;2024-02-23T02:08:29;98616.41;;;6.52;67.96
85918;BME280;76456;49.310;8.632;2024-02-23T02:10:55;98604.91;;;6.46;67.05
85918;BME280;76456;49.310;8.632;2024-02-23T02:13:20;98621.84;;;6.58;66.77
85918;BME280;76456;49.310;8.632;2024-02-23T02:15:45;98610.47;;;6.51;67.35
85918;BME280;76456;49.310;8.632;2024-02-23T02:18:11;98616.44;;;6.62;66.60
85918;BME280;76456;49.310;8.632;2024-02-23T02:20:38;98615.84;;;6.48;66.22
85918;BME280;76456;49.310;8.632;2024-02-23T02:23:08;98628.41;;;6.51;66.57
85918;BME280;76456;49.310;8.632;2024-02-23T02:25:34;98632.16;;;6.68;65.39
85918;BME280;76456;49.310;8.632;2024-02-23T02:27:59;98625.50;;;6.66;65.59
85918;BME280;76456;49.310;8.632;2024-02-23T02:30:24;98626.81;;;6.60;66.46
85918;BME280;76456;49.310;8.632;2024-02-23T02:32:49;98642.72;;;6.75;67.23
85918;BME280;76456;49.310;8.632;2024-02-23T02:35:15;98648.38;;;6.78;67.17
85918;BME280;76456;49.310;8.632;2024-02-23T02:37:40;98615.53;;;6.63;67.06
85918;BME280;76456;49.310;8.632;2024-02-23T02:40:06;98648.81;;;6.83;66.37
85918;BME280;76456;49.310;8.632;2024-02-23T02:42:33;98639.38;;;6.84;67.00
85918;BME280;76456;49.310;8.632;2024-02-23T02:44:58;98641.00;;;6.85;66.87
85918;BME280;76456;49.310;8.632;2024-02-23T02:47:23;98644.94;;;6.89;66.97
85918;BME280;76456;49.310;8.632;2024-02-23T02:49:49;98645.75;;;6.89;65.86
85918;BME280;76456;49.310;8.632;2024-02-23T02:52:14;98644.44;;;6.95;65.28
85918;BME280;76456;49.310;8.632;2024-02-23T02:54:40;98646.19;;;6.94;66.15
85918;BME280;76456;49.310;8.632;2024-02-23T02:57:05;98635.34;;;6.91;66.52
85918;BME280;76456;49.310;8.632;2024-02-23T02:59:34;98639.44;;;6.93;65.20
85918;BME280;76456;49.310;8.632;2024-02-23T03:02:00;98633.31;;;6.85;66.18
85918;BME280;76456;49.310;8.632;2024-02-23T03:04:25;98660.06;;;6.92;66.72
85918;BME280;76456;49.310;8.632;2024-02-23T03:06:50;98653.31;;;6.91;68.18
85918;BME280;76456;49.310;8.632;2024-02-23T03:09:15;98648.28;;;6.80;67.95
85918;BME280;76456;49.310;8.632;2024-02-23T03:11:41;98664.34;;;6.82;67.66
85918;BME280;76456;49.310;8.632;2024-02-23T03:14:06;98652.78;;;6.87;68.44
85918;BME280;76456;49.310;8.632;2024-02-23T03:16:32;98653.69;;;6.86;68.82
85918;BME280;76456;49.310;8.632;2024-02-23T03:18:59;98642.59;;;6.76;67.75
85918;BME280;76456;49.310;8.632;2024-02-23T03:21:24;98641.09;;;6.74;67.72
85918;BME280;76456;49.310;8.632;2024-02-23T03:23:50;98645.97;;;6.77;66.81
85918;BME280;76456;49.310;8.632;2024-02-23T03:26:15;98630.41;;;6.69;67.49
85918;BME280;76456;49.310;8.632;2024-02-23T03:28:42;98638.78;;;6.71;65.98
85918;BME280;76456;49.310;8.632;2024-02-23T03:31:07;98659.06;;;6.83;66.05
85918;BME280;76456;49.310;8.632;2024-02-23T03:33:33;98651.38;;;6.83;64.59
85918;BME280;76456;49.310;8.632;2024-02-23T03:35:58;98649.63;;;6.84;64.51
85918;BME280;76456;49.310;8.632;2024-02-23T03:38:24;98642.84;;;6.73;64.26
85918;BME280;76456;49.310;8.632;2024-02-23T03:40:49;98657.31;;;6.84;63.91
85918;BME280;76456;49.310;8.632;2024-02-23T03:43:14;98649.63;;;6.84;63.31
85918;BME280;76456;49.310;8.632;2024-02-23T03:45:40;98655.44;;;6.86;63.58
85918;BME280;76456;49.310;8.632;2024-02-23T03:48:06;98652.34;;;6.82;64.53
85918;BME280;76456;49.310;8.632;2024-02-23T03:50:31;98662.59;;;6.82;63.77
85918;BME280;76456;49.310;8.632;2024-02-23T03:52:57;98652.47;;;6.81;64.23
85918;BME280;76456;49.310;8.632;2024-02-23T03:55:22;98661.78;;;6.82;63.55
85918;BME280;76456;49.310;8.632;2024-02-23T03:57:48;98667.75;;;6.82;64.06
85918;BME280;76456;49.310;8.632;2024-02-23T04:00:14;98668.09;;;6.78;65.56
85918;BME280;76456;49.310;8.632;2024-02-23T04:02:39;98671.88;;;6.74;65.30
85918;BME280;76456;49.310;8.632;2024-02-23T04:05:05;98670.22;;;6.73;65.51
85918;BME280;76456;49.310;8.632;2024-02-23T04:07:31;98675.50;;;6.71;65.27
85918;BME280;76456;49.310;8.632;2024-02-23T04:09:56;98647.91;;;6.43;65.57
85918;BME280;76456;49.310;8.632;2024-02-23T04:12:21;98688.53;;;6.58;67.01
85918;BME280;76456;49.310;8.632;2024-02-23T04:14:47;98686.59;;;6.30;68.62
85918;BME280;76456;49.310;8.632;2024-02-23T04:17:13;98666.34;;;5.84;70.05
85918;BME280;76456;49.310;8.632;2024-02-23T04:19:40;98683.69;;;5.81;69.95
85918;BME280;76456;49.310;8.632;2024-02-23T04:22:06;98699.19;;;5.90;70.19
85918;BME280;76456;49.310;8.632;2024-02-23T04:24:36;98713.94;;;5.98;69.28
85918;BME280;76456;49.310;8.632;2024-02-23T04:27:01;98693.09;;;6.02;68.23
85918;BME280;76456;49.310;8.632;2024-02-23T04:29:27;98695.66;;;6.02;67.94
85918;BME280;76456;49.310;8.632;2024-02-23T04:31:52;98693.78;;;6.04;67.84
85918;BME280;76456;49.310;8.632;2024-02-23T04:34:18;98700.97;;;6.10;68.13
85918;BME280;76456;49.310;8.632;2024-02-23T04:36:43;98679.13;;;5.95;68.34
85918;BME280;76456;49.310;8.632;2024-02-23T04:39:08;98698.78;;;6.06;67.90
85918;BME280;76456;49.310;8.632;2024-02-23T04:41:34;98691.44;;;6.01;68.33
85918;BME280;76456;49.310;8.632;2024-02-23T04:43:59;98687.28;;;6.00;68.17
85918;BME280;76456;49.310;8.632;2024-02-23T04:46:25;98694.22;;;6.09;68.25
85918;BME280;76456;49.310;8.632;2024-02-23T04:48:50;98674.81;;;5.96;67.92
85918;BME280;76456;49.310;8.632;2024-02-23T04:51:16;98682.06;;;5.91;67.28
85918;BME280;76456;49.310;8.632;2024-02-23T04:53:41;98667.84;;;5.87;68.01
85918;BME280;76456;49.310;8.632;2024-02-23T04:56:07;98682.59;;;6.05;67.21
85918;BME280;76456;49.310;8.632;2024-02-23T04:58:32;98674.72;;;5.97;68.49
85918;BME280;76456;49.310;8.632;2024-02-23T05:00:58;98670.34;;;5.66;69.12
85918;BME280;76456;49.310;8.632;2024-02-23T05:03:23;98687.09;;;5.70;67.99
85918;BME280;76456;49.310;8.632;2024-02-23T05:05:48;98665.16;;;5.45;69.27
85918;BME280;76456;49.310;8.632;2024-02-23T05:08:18;98685.63;;;5.56;68.84
85918;BME280;76456;49.310;8.632;2024-02-23T05:10:44;98680.75;;;5.42;68.94
85918;BME280;76456;49.310;8.632;2024-02-23T05:13:09;98675.38;;;5.56;67.42
85918;BME280;76456;49.310;8.632;2024-02-23T05:15:35;98681.06;;;5.71;68.28
85918;BME280;76456;49.310;8.632;2024-02-23T05:18:00;98697.53;;;5.78;67.69
85918;BME280;76456;49.310;8.632;2024-02-23T05:20:25;98696.91;;;5.65;67.85
85918;BME280;76456;49.310;8.632;2024-02-23T05:22:51;98690.25;;;5.62;68.38
85918;BME280;76456;49.310;8.632;2024-02-23T05:25:16;98703.66;;;5.55;69.05
85918;BME280;76456;49.310;8.632;2024-02-23T05:27:41;98675.63;;;5.42;68.07
85918;BME280;76456;49.310;8.632;2024-02-23T05:30:07;98695.84;;;5.56;67.49
85918;BME280;76456;49.310;8.632;2024-02-23T05:32:33;98701.34;;;5.52;68.39
85918;BME280;76456;49.310;8.632;2024-02-23T05:34:58;98689.22;;;5.54;67.50
85918;BME280;76456;49.310;8.632;2024-02-23T05:37:24;98660.44;;;5.29;67.18
85918;BME280;76456;49.310;8.632;2024-02-23T05:39:49;98705.72;;;5.72;67.16
85918;BME280;76456;49.310;8.632;2024-02-23T05:42:14;98715.00;;;5.84;65.84
85918;BME280;76456;49.310;8.632;2024-02-23T05:44:43;98707.78;;;5.89;65.94
85918;BME280;76456;49.310;8.632;2024-02-23T05:47:08;98722.38;;;5.89;65.39
85918;BME280;76456;49.310;8.632;2024-02-23T05:49:35;98715.38;;;5.91;64.78
85918;BME280;76456;49.310;8.632;2024-02-23T05:52:00;98723.16;;;5.89;64.88
85918;BME280;76456;49.310;8.632;2024-02-23T05:54:25;98716.88;;;5.82;64.80
85918;BME280;76456;49.310;8.632;2024-02-23T05:56:51;98733.56;;;5.88;64.59
85918;BME280;76456;49.310;8.632;2024-02-23T05:59:16;98740.75;;;5.94;63.58
85918;BME280;76456;49.310;8.632;2024-02-23T06:01:42;98723.97;;;5.90;63.25
85918;BME280;76456;49.310;8.632;2024-02-23T06:04:07;98726.34;;;5.70;64.73
85918;BME280;76456;49.310;8.632;2024-02-23T06:06:32;98726.56;;;5.56;64.47
85918;BME280;76456;49.310;8.632;2024-02-23T06:08:58;98712.63;;;5.38;65.02
85918;BME280;76456;49.310;8.632;2024-02-23T06:11:23;98710.78;;;5.29;65.20
85918;BME280;76456;49.310;8.632;2024-02-23T06:13:48;98720.88;;;5.30;64.66
85918;BME280;76456;49.310;8.632;2024-02-23T06:16:14;98730.53;;;5.38;64.98
85918;BME280;76456;49.310;8.632;2024-02-23T06:18:39;98752.06;;;5.24;65.03
85918;BME280;76456;49.310;8.632;2024-02-23T06:21:17;98746.81;;;5.15;65.93
85918;BME280;76456;49.310;8.632;2024-02-23T06:23:43;98712.97;;;4.89;65.61
85918;BME280;76456;49.310;8.632;2024-02-23T06:26:09;98734.38;;;4.99;65.56
85918;BME280;76456;49.310;8.632;2024-02-23T06:28:34;98742.53;;;5.04;65.60
85918;BME280;76456;49.310;8.632;2024-02-23T06:31:00;98759.72;;;5.13;65.45
85918;BME280;76456;49.310;8.632;2024-02-23T06:33:25;98739.63;;;5.20;63.91
85918;BME280;76456;49.310;8.632;2024-02-23T06:35:51;98761.00;;;5.08;64.37
85918;BME280;76456;49.310;8.632;2024-02-23T06:38:17;98759.72;;;5.13;64.80
85918;BME280;76456;49.310;8.632;2024-02-23T06:40:43;98743.09;;;4.97;64.17
85918;BME280;76456;49.310;8.632;2024-02-23T06:43:08;98750.53;;;5.00;63.90
85918;BME280;76456;49.310;8.632;2024-02-23T06:45:33;98764.53;;;5.18;63.97
85918;BME280;76456;49.310;8.632;2024-02-23T06:47:58;98730.75;;;4.90;63.59
85918;BME280;76456;49.310;8.632;2024-02-23T06:50:24;98744.72;;;5.09;63.68
85918;BME280;76456;49.310;8.632;2024-02-23T06:52:49;98743.69;;;5.00;64.02
85918;BME280;76456;49.310;8.632;2024-02-23T06:55:15;98739.94;;;4.93;64.03
85918;BME280;76456;49.310;8.632;2024-02-23T06:57:41;98755.78;;;5.09;63.82
85918;BME280;76456;49.310;8.632;2024-02-23T07:00:07;98736.22;;;4.97;64.09
85918;BME280;76456;49.310;8.632;2024-02-23T07:02:33;98758.44;;;5.08;64.14
85918;BME280;76456;49.310;8.632;2024-02-23T07:05:01;98757.78;;;5.17;63.39
85918;BME280;76456;49.310;8.632;2024-02-23T07:07:29;98748.91;;;4.99;64.17
85918;BME280;76456;49.310;8.632;2024-02-23T07:09:55;98767.28;;;4.92;64.11
85918;BME280;76456;49.310;8.632;2024-02-23T07:12:21;98755.84;;;4.74;66.25
85918;BME280;76456;49.310;8.632;2024-02-23T07:14:46;98746.91;;;4.91;63.65
85918;BME280;76456;49.310;8.632;2024-02-23T07:17:11;98764.97;;;5.01;64.85
85918;BME280;76456;49.310;8.632;2024-02-23T07:19:37;98770.16;;;4.88;64.93
85918;BME280;76456;49.310;8.632;2024-02-23T07:22:02;98759.94;;;4.88;65.29
85918;BME280;76456;49.310;8.632;2024-02-23T07:24:28;98773.13;;;5.06;64.96
85918;BME280;76456;49.310;8.632;2024-02-23T07:26:53;98763.19;;;5.01;64.38
85918;BME280;76456;49.310;8.632;2024-02-23T07:29:18;98776.38;;;5.19;63.75
85918;BME280;76456;49.310;8.632;2024-02-23T07:31:44;98775.22;;;5.12;65.24
85918;BME280;76456;49.310;8.632;2024-02-23T07:34:09;98758.91;;;5.02;65.06
85918;BME280;76456;49.310;8.632;2024-02-23T07:36:35;98776.13;;;5.00;65.17
85918;BME280;76456;49.310;8.632;2024-02-23T07:39:00;98767.84;;;4.96;64.60
85918;BME280;76456;49.310;8.632;2024-02-23T07:41:26;98764.34;;;4.86;65.48
85918;BME280;76456;49.310;8.632;2024-02-23T07:43:51;98758.97;;;4.78;65.57
85918;BME280;76456;49.310;8.632;2024-02-23T07:46:17;98762.34;;;4.78;66.02
85918;BME280;76456;49.310;8.632;2024-02-23T07:48:42;98773.59;;;4.65;65.98
85918;BME280;76456;49.310;8.632;2024-02-23T07:51:07;98786.09;;;4.57;67.79
85918;BME280;76456;49.310;8.632;2024-02-23T07:53:33;98786.81;;;4.59;67.04
85918;BME280;76456;49.310;8.632;2024-02-23T07:55:59;98794.59;;;4.57;67.74
85918;BME280;76456;49.310;8.632;2024-02-23T07:58:27;98778.78;;;4.52;67.09
85918;BME280;76456;49.310;8.632;2024-02-23T08:00:52;98792.22;;;4.78;66.69
85918;BME280;76456;49.310;8.632;2024-02-23T08:03:18;98778.78;;;4.87;66.43
85918;BME280;76456;49.310;8.632;2024-02-23T08:05:44;98796.25;;;5.15;66.03
85918;BME280;76456;49.310;8.632;2024-02-23T08:08:09;98797.66;;;5.30;65.79
85918;BME280;76456;49.310;8.632;2024-02-23T08:10:34;98783.16;;;5.53;63.21
85918;BME280;76456;49.310;8.632;2024-02-23T08:13:00;98786.50;;;5.98;62.18
85918;BME280;76456;49.310;8.632;2024-02-23T08:15:25;98792.63;;;6.50;60.76
85918;BME280;76456;49.310;8.632;2024-02-23T08:17:51;98786.66;;;7.02;58.68
85918;BME280;76456;49.310;8.632;2024-02-23T08:20:16;98795.22;;;7.33;57.54
85918;BME280;76456;49.310;8.632;2024-02-23T08:22:41;98797.78;;;7.33;57.60
85918;BME280;76456;49.310;8.632;2024-02-23T08:25:07;98791.13;;;7.30;57.51
85918;BME280;76456;49.310;8.632;2024-02-23T08:27:33;98800.19;;;7.55;56.92
85918;BME280;76456;49.310;8.632;2024-02-23T08:29:59;98782.38;;;7.63;55.98
85918;BME280;76456;49.310;8.632;2024-02-23T08:32:24;98785.13;;;7.71;56.26
85918;BME280;76456;49.310;8.632;2024-02-23T08:34:50;98786.25;;;7.88;55.96
85918;BME280;76456;49.310;8.632;2024-02-23T08:37:18;98772.59;;;7.97;54.87
85918;BME280;76456;49.310;8.632;2024-02-23T08:39:43;98779.53;;;8.06;55.43
85918;BME280;76456;49.310;8.632;2024-02-23T08:42:09;98776.38;;;7.93;55.48
85918;BME280;76456;49.310;8.632;2024-02-23T08:44:35;98766.69;;;8.06;55.69
85918;BME280;76456;49.310;8.632;2024-02-23T08:47:00;98772.41;;;8.39;55.40
85918;BME280;76456;49.310;8.632;2024-02-23T08:49:27;98764.56;;;8.50;54.73
85918;BME280;76456;49.310;8.632;2024-02-23T08:51:52;98763.75;;;8.49;54.41
85918;BME280;76456;49.310;8.632;2024-02-23T08:54:17;98772.94;;;8.61;54.73
85918;BME280;76456;49.310;8.632;2024-02-23T08:56:43;98776.34;;;8.72;54.71
85918;BME280;76456;49.310;8.632;2024-02-23T08:59:09;98763.44;;;8.91;53.65
85918;BME280;76456;49.310;8.632;2024-02-23T09:01:35;98765.75;;;8.94;53.61
85918;BME280;76456;49.310;8.632;2024-02-23T09:04:01;98765.34;;;8.89;53.29
85918;BME280;76456;49.310;8.632;2024-02-23T09:06:26;98742.75;;;8.73;52.51
85918;BME280;76456;49.310;8.632;2024-02-23T09:08:51;98751.16;;;8.75;53.08
85918;BME280;76456;49.310;8.632;2024-02-23T09:11:17;98742.47;;;8.67;52.43
85918;BME280;76456;49.310;8.632;2024-02-23T09:13:42;98754.41;;;8.68;52.59
85918;BME280;76456;49.310;8.632;2024-02-23T09:16:08;98746.81;;;8.76;52.92
85918;BME280;76456;49.310;8.632;2024-02-23T09:18:34;98750.19;;;8.76;52.12
85918;BME280;76456;49.310;8.632;2024-02-23T09:21:00;98743.72;;;8.53;53.29
85918;BME280;76456;49.310;8.632;2024-02-23T09:23:25;98744.50;;;8.25;54.54
85918;BME280;76456;49.310;8.632;2024-02-23T09:25:51;98730.69;;;8.06;55.15
85918;BME280;76456;49.310;8.632;2024-02-23T09:28:16;98734.31;;;8.04;55.00
85918;BME280;76456;49.310;8.632;2024-02-23T09:30:41;98724.84;;;7.95;56.25
85918;BME280;76456;49.310;8.632;2024-02-23T09:33:07;98746.19;;;7.95;55.44
85918;BME280;76456;49.310;8.632;2024-02-23T09:35:33;98734.47;;;8.12;54.50
85918;BME280;76456;49.310;8.632;2024-02-23T09:37:58;98735.06;;;8.44;53.99
85918;BME280;76456;49.310;8.632;2024-02-23T09:40:24;98733.56;;;8.71;52.56
85918;BME280;76456;49.310;8.632;2024-02-23T09:42:56;98705.28;;;8.42;51.87
85918;BME280;76456;49.310;8.632;2024-02-23T09:45:24;98722.84;;;8.37;52.44
85918;BME280;76456;49.310;8.632;2024-02-23T09:47:50;98733.72;;;8.40;51.93
85918;BME280;76456;49.310;8.632;2024-02-23T09:50:17;98726.34;;;8.74;52.95
85918;BME280;76456;49.310;8.632;2024-02-23T09:52:43;98730.34;;;9.06;51.92
85918;BME280;76456;49.310;8.632;2024-02-23T09:55:08;98731.44;;;9.13;51.88
85918;BME280;76456;49.310;8.632;2024-02-23T09:57:36;98733.97;;;9.22;51.06
85918;BME280;76456;49.310;8.632;2024-02-23T10:00:01;98730.94;;;9.36;51.37
85918;BME280;76456;49.310;8.632;2024-02-23T10:02:31;98731.91;;;8.79;51.97
85918;BME280;76456;49.310;8.632;2024-02-23T10:04:59;98727.03;;;8.76;51.72
85918;BME280;76456;49.310;8.632;2024-02-23T10:07:25;98737.88;;;8.70;51.68
85918;BME280;76456;49.310;8.632;2024-02-23T10:09:51;98751.50;;;8.90;52.11
85918;BME280;76456;49.310;8.632;2024-02-23T10:12:16;98740.81;;;8.85;51.81
85918;BME280;76456;49.310;8.632;2024-02-23T10:14:43;98728.78;;;8.66;52.41
85918;BME280;76456;49.310;8.632;2024-02-23T10:17:08;98743.25;;;8.86;51.62
85918;BME280;76456;49.310;8.632;2024-02-23T10:19:33;98748.69;;;8.83;52.47
85918;BME280;76456;49.310;8.632;2024-02-23T10:21:59;98738.00;;;9.25;51.53
85918;BME280;76456;49.310;8.632;2024-02-23T10:24:24;98733.09;;;9.31;51.12
85918;BME280;76456;49.310;8.632;2024-02-23T10:26:51;98758.81;;;9.04;51.11
85918;BME280;76456;49.310;8.632;2024-02-23T10:29:17;98747.09;;;9.19;51.67
85918;BME280;76456;49.310;8.632;2024-02-23T10:31:43;98752.88;;;9.40;49.88
85918;BME280;76456;49.310;8.632;2024-02-23T10:34:13;98754.94;;;9.64;49.19
85918;BME280;76456;49.310;8.632;2024-02-23T10:36:43;98750.34;;;9.85;48.91
85918;BME280;76456;49.310;8.632;2024-02-23T10:39:10;98758.06;;;10.13;49.17
85918;BME280;76456;49.310;8.632;2024-02-23T10:41:36;98729.38;;;9.98;48.65
85918;BME280;76456;49.310;8.632;2024-02-23T10:44:03;98739.44;;;9.92;49.06
85918;BME280;76456;49.310;8.632;2024-02-23T10:46:31;98759.59;;;10.06;48.29
85918;BME280;76456;49.310;8.632;2024-02-23T10:48:58;98750.94;;;9.97;49.26
85918;BME280;76456;49.310;8.632;2024-02-23T10:51:24;98759.91;;;10.20;47.50
85918;BME280;76456;49.310;8.632;2024-02-23T10:53:50;98755.28;;;10.42;47.41
85918;BME280;76456;49.310;8.632;2024-02-23T10:56:17;98730.34;;;10.15;47.13
85918;BME280;76456;49.310;8.632;2024-02-23T10:58:42;98753.88;;;10.47;47.35
85918;BME280;76456;49.310;8.632;2024-02-23T11:01:09;98742.75;;;10.47;46.73
85918;BME280;76456;49.310;8.632;2024-02-23T11:03:36;98748.28;;;10.16;47.61
85918;BME280;76456;49.310;8.632;2024-02-23T11:06:06;98750.03;;;10.51;47.59
85918;BME280;76456;49.310;8.632;2024-02-23T11:08:35;98713.78;;;10.35;46.77
85918;BME280;76456;49.310;8.632;2024-02-23T11:11:11;98741.03;;;10.38;46.77
85918;BME280;76456;49.310;8.632;2024-02-23T11:13:40;98740.19;;;10.29;46.92
85918;BME280;76456;49.310;8.632;2024-02-23T11:16:07;98737.44;;;10.92;46.44
85918;BME280;76456;49.310;8.632;2024-02-23T11:18:39;98731.72;;;10.80;46.27
85918;BME280;76456;49.310;8.632;2024-02-23T11:21:05;98729.34;;;11.88;43.54
85918;BME280;76456;49.310;8.632;2024-02-23T11:23:44;98716.31;;;12.22;41.76
85918;BME280;76456;49.310;8.632;2024-02-23T11:26:14;98730.84;;;11.23;44.80
85918;BME280;76456;49.310;8.632;2024-02-23T11:28:57;98722.38;;;13.27;39.86
85918;BME280;76456;49.310;8.632;2024-02-23T11:31:25;98725.38;;;12.83;40.41
85918;BME280;76456;49.310;8.632;2024-02-23T11:33:55;98716.97;;;13.83;38.26
85918;BME280;76456;49.310;8.632;2024-02-23T11:36:29;98717.72;;;14.98;36.17
85918;BME280;76456;49.310;8.632;2024-02-23T11:38:57;98701.28;;;13.38;38.66
85918;BME280;76456;49.310;8.632;2024-02-23T11:41:23;98717.28;;;12.70;40.04
85918;BME280;76456;49.310;8.632;2024-02-23T11:43:50;98719.53;;;12.32;40.70
85918;BME280;76456;49.310;8.632;2024-02-23T11:46:16;98704.78;;;11.42;41.75
85918;BME280;76456;49.310;8.632;2024-02-23T11:48:42;98720.34;;;11.59;42.51
85918;BME280;76456;49.310;8.632;2024-02-23T11:51:09;98698.03;;;11.16;43.96
85918;BME280;76456;49.310;8.632;2024-02-23T11:53:34;98710.38;;;11.72;43.90
85918;BME280;76456;49.310;8.632;2024-02-23T11:56:00;98707.28;;;11.60;44.53
85918;BME280;76456;49.310;8.632;2024-02-23T11:58:25;98704.31;;;11.13;45.08
85918;BME280;76456;49.310;8.632;2024-02-23T12:00:51;98696.31;;;10.98;45.19
85918;BME280;76456;49.310;8.632;2024-02-23T12:03:16;98714.63;;;10.61;44.41
85918;BME280;76456;49.310;8.632;2024-02-23T12:05:43;98722.63;;;10.50;45.82
85918;BME280;76456;49.310;8.632;2024-02-23T12:08:08;98705.25;;;10.60;45.77
85918;BME280;76456;49.310;8.632;2024-02-23T12:10:34;98697.78;;;10.32;46.26
85918;BME280;76456;49.310;8.632;2024-02-23T12:12:59;98710.97;;;10.11;47.60
85918;BME280;76456;49.310;8.632;2024-02-23T12:15:25;98703.28;;;9.83;47.29
85918;BME280;76456;49.310;8.632;2024-02-23T12:17:50;98713.75;;;9.82;48.19
85918;BME280;76456;49.310;8.632;2024-02-23T12:20:16;98697.13;;;9.67;49.47
85918;BME280;76456;49.310;8.632;2024-02-23T12:22:42;98714.78;;;9.62;48.64
85918;BME280;76456;49.310;8.632;2024-02-23T12:25:07;98711.16;;;9.55;49.90
85918;BME280;76456;49.310;8.632;2024-02-23T12:27:33;98700.84;;;9.27;49.71
85918;BME280;76456;49.310;8.632;2024-02-23T12:29:58;98716.44;;;9.35;50.69
85918;BME280;76456;49.310;8.632;2024-02-23T12:32:25;98714.38;;;9.39;50.91
85918;BME280;76456;49.310;8.632;2024-02-23T12:34:52;98720.00;;;9.52;51.23
85918;BME280;76456;49.310;8.632;2024-02-23T12:37:18;98714.53;;;9.65;49.84
85918;BME280;76456;49.310;8.632;2024-02-23T12:39:44;98703.25;;;9.66;49.66
85918;BME280;76456;49.310;8.632;2024-02-23T12:42:09;98714.91;;;9.88;49.28
85918;BME280;76456;49.310;8.632;2024-02-23T12:44:35;98692.31;;;10.52;48.42
85918;BME280;76456;49.310;8.632;2024-02-23T12:47:00;98708.81;;;10.59;47.91
85918;BME280;76456;49.310;8.632;2024-02-23T12:49:26;98702.28;;;10.47;48.73
85918;BME280;76456;49.310;8.632;2024-02-23T12:51:51;98707.13;;;10.50;47.67
85918;BME280;76456;49.310;8.632;2024-02-23T12:54:17;98712.47;;;11.00;46.66
85918;BME280;76456;49.310;8.632;2024-02-23T12:56:42;98714.66;;;10.87;45.85
85918;BME280;76456;49.310;8.632;2024-02-23T12:59:08;98715.88;;;11.01;46.10
85918;BME280;76456;49.310;8.632;2024-02-23T13:01:35;98702.53;;;11.89;44.56
85918;BME280;76456;49.310;8.632;2024-02-23T13:04:03;98693.16;;;11.55;45.37